createdAt,value
2022-12-06T00:01:08.995Z,100.00
2022-12-06T00:03:38.166Z,100.00
2022-12-06T00:06:08.077Z,100.00
2022-12-06T00:08:36.447Z,100.00
2022-12-06T00:11:06.369Z,100.00
2022-12-06T00:13:34.741Z,100.00
2022-12-06T00:16:06.029Z,100.00
2022-12-06T00:18:36.137Z,100.00
2022-12-06T00:21:09.722Z,100.00
2022-12-06T00:23:38.590Z,100.00
2022-12-06T00:26:07.588Z,100.00
2022-12-06T00:28:36.558Z,100.00
2022-12-06T00:31:09.373Z,100.00
2022-12-06T00:33:38.406Z,100.00
2022-12-06T00:36:08.258Z,100.00
2022-12-06T00:38:36.562Z,100.00
2022-12-06T00:41:06.630Z,100.00
2022-12-06T00:43:35.197Z,100.00
2022-12-06T00:46:04.023Z,100.00
2022-12-06T00:48:33.923Z,100.00
2022-12-06T00:51:02.161Z,100.00
2022-12-06T00:53:30.505Z,100.00
2022-12-06T00:55:58.370Z,100.00
2022-12-06T00:58:26.384Z,100.00
2022-12-06T01:00:54.653Z,100.00
2022-12-06T01:03:23.627Z,100.00
2022-12-06T01:05:53.117Z,100.00
2022-12-06T01:08:21.253Z,100.00
2022-12-06T01:10:55.912Z,100.00
2022-12-06T01:13:23.924Z,100.00
2022-12-06T01:15:51.914Z,100.00
2022-12-06T01:18:19.821Z,100.00
2022-12-06T01:20:47.910Z,100.00
2022-12-06T01:23:17.253Z,100.00
2022-12-06T01:25:51.464Z,100.00
2022-12-06T01:28:19.960Z,100.00
2022-12-06T01:30:47.923Z,100.00
2022-12-06T01:33:15.859Z,100.00
2022-12-06T01:35:44.183Z,100.00
2022-12-06T01:38:12.858Z,100.00
2022-12-06T01:40:44.817Z,100.00
2022-12-06T01:43:31.251Z,100.00
2022-12-06T01:46:03.438Z,100.00
2022-12-06T01:48:31.610Z,100.00
2022-12-06T01:51:01.052Z,100.00
2022-12-06T01:53:29.127Z,100.00
2022-12-06T01:55:58.542Z,100.00
2022-12-06T01:58:32.455Z,100.00
2022-12-06T02:01:01.749Z,100.00
2022-12-06T02:03:33.329Z,100.00
2022-12-06T02:06:02.500Z,100.00
2022-12-06T02:08:31.424Z,100.00
2022-12-06T02:11:03.728Z,100.00
2022-12-06T02:13:34.907Z,100.00
2022-12-06T02:16:14.519Z,100.00
2022-12-06T02:18:48.785Z,100.00
2022-12-06T02:21:25.155Z,100.00
2022-12-06T02:24:16.212Z,100.00
2022-12-06T02:26:48.738Z,100.00
2022-12-06T02:29:46.818Z,100.00
2022-12-06T02:32:19.576Z,100.00
2022-12-06T02:34:55.680Z,100.00
2022-12-06T02:37:30.854Z,100.00
2022-12-06T02:40:04.209Z,100.00
2022-12-06T02:42:36.910Z,100.00
2022-12-06T02:45:10.562Z,100.00
2022-12-06T02:47:40.783Z,100.00
2022-12-06T02:50:12.934Z,100.00
2022-12-06T02:52:44.759Z,100.00
2022-12-06T02:55:14.327Z,100.00
2022-12-06T02:57:44.944Z,100.00
2022-12-06T03:00:33.422Z,100.00
2022-12-06T03:03:15.708Z,99.54
2022-12-06T03:05:54.542Z,95.47
2022-12-06T03:08:35.073Z,95.88
2022-12-06T03:11:04.421Z,92.84
2022-12-06T03:13:40.955Z,93.05
2022-12-06T03:16:18.146Z,91.86
2022-12-06T03:18:54.770Z,91.99
2022-12-06T03:21:26.725Z,91.88
2022-12-06T03:23:55.188Z,91.40
2022-12-06T03:26:33.554Z,89.67
2022-12-06T03:29:04.473Z,89.28
2022-12-06T03:31:35.054Z,89.66
2022-12-06T03:34:10.289Z,88.30
2022-12-06T03:36:40.669Z,87.23
2022-12-06T03:39:09.520Z,85.84
2022-12-06T03:41:42.568Z,84.98
2022-12-06T03:44:10.512Z,86.76
2022-12-06T03:46:42.727Z,84.51
2022-12-06T03:49:17.147Z,83.52
2022-12-06T03:51:46.352Z,85.92
2022-12-06T03:54:14.692Z,81.83
2022-12-06T03:56:42.557Z,81.81
2022-12-06T03:59:12.272Z,83.95
2022-12-06T04:01:40.895Z,82.60
2022-12-06T04:04:08.880Z,82.17
2022-12-06T04:06:38.303Z,83.64
2022-12-06T04:09:23.625Z,83.12
2022-12-06T04:11:51.434Z,82.05
2022-12-06T04:14:19.280Z,84.41
2022-12-06T04:17:04.536Z,84.82
2022-12-06T04:19:32.787Z,84.85
2022-12-06T04:22:18.546Z,85.29
2022-12-06T04:24:46.369Z,85.91
2022-12-06T04:27:31.613Z,85.06
2022-12-06T04:30:16.916Z,87.14
2022-12-06T04:33:02.080Z,85.07
2022-12-06T04:35:47.267Z,87.33
2022-12-06T04:38:34.067Z,85.60
2022-12-06T04:41:01.923Z,87.40
2022-12-06T04:43:43.711Z,88.37
2022-12-06T04:46:12.595Z,89.79
2022-12-06T04:48:41.292Z,88.90
2022-12-06T04:51:12.803Z,90.82
2022-12-06T04:53:42.197Z,90.50
2022-12-06T04:56:10.083Z,90.25
2022-12-06T04:58:37.880Z,91.05
2022-12-06T05:01:05.827Z,92.00
2022-12-06T05:03:33.973Z,91.91
2022-12-06T05:06:01.945Z,92.07
2022-12-06T05:08:29.827Z,93.19
2022-12-06T05:10:59.238Z,93.58
2022-12-06T05:13:27.330Z,94.98
2022-12-06T05:15:57.448Z,96.90
2022-12-06T05:18:25.884Z,100.00
2022-12-06T05:21:02.750Z,100.00
2022-12-06T05:23:30.774Z,100.00
2022-12-06T05:26:00.935Z,100.00
2022-12-06T05:28:29.718Z,100.00
2022-12-06T05:30:58.027Z,100.00
2022-12-06T05:33:26.730Z,100.00
2022-12-06T05:35:54.868Z,100.00
2022-12-06T05:38:23.357Z,100.00
2022-12-06T05:40:51.368Z,100.00
2022-12-06T05:43:20.742Z,100.00
2022-12-06T05:45:53.999Z,100.00
2022-12-06T05:48:22.196Z,100.00
2022-12-06T05:50:50.648Z,100.00
2022-12-06T05:53:18.790Z,100.00
2022-12-06T05:55:46.866Z,100.00
2022-12-06T05:58:15.351Z,100.00
2022-12-06T06:00:47.571Z,100.00
2022-12-06T06:03:15.817Z,100.00
2022-12-06T06:05:48.705Z,100.00
2022-12-06T06:08:17.379Z,100.00
2022-12-06T06:10:45.972Z,100.00
2022-12-06T06:13:13.908Z,100.00
2022-12-06T06:15:41.974Z,100.00
2022-12-06T06:18:11.385Z,100.00
2022-12-06T06:20:39.343Z,100.00
2022-12-06T06:23:07.237Z,100.00
2022-12-06T06:25:35.307Z,100.00
2022-12-06T06:28:03.154Z,100.00
2022-12-06T06:30:30.995Z,100.00
2022-12-06T06:32:58.906Z,100.00
2022-12-06T06:35:28.394Z,100.00
2022-12-06T06:37:56.359Z,100.00
2022-12-06T06:40:24.546Z,100.00
2022-12-06T06:42:52.434Z,100.00
2022-12-06T06:45:26.742Z,100.00
2022-12-06T06:47:56.363Z,100.00
2022-12-06T06:50:24.188Z,100.00
2022-12-06T06:52:53.387Z,100.00
2022-12-06T06:55:21.260Z,100.00
2022-12-06T06:57:49.421Z,100.00
2022-12-06T07:00:18.792Z,100.00
2022-12-06T07:02:46.758Z,100.00
2022-12-06T07:05:14.564Z,100.00
2022-12-06T07:07:42.786Z,100.00
2022-12-06T07:10:13.264Z,100.00
2022-12-06T07:12:41.139Z,100.00
2022-12-06T07:15:10.129Z,100.00
2022-12-06T07:17:38.349Z,100.00
2022-12-06T07:20:07.496Z,100.00
2022-12-06T07:22:35.338Z,100.00
2022-12-06T07:25:03.212Z,100.00
2022-12-06T07:27:36.705Z,100.00
2022-12-06T07:30:05.616Z,100.00
2022-12-06T07:32:35.231Z,100.00
2022-12-06T07:35:04.422Z,100.00
2022-12-06T07:37:32.920Z,100.00
2022-12-06T07:40:01.200Z,100.00
2022-12-06T07:42:46.864Z,100.00
2022-12-06T07:45:16.983Z,100.00
2022-12-06T07:47:45.819Z,100.00
2022-12-06T07:50:18.185Z,100.00
2022-12-06T07:52:47.725Z,100.00
2022-12-06T07:55:17.248Z,100.00
2022-12-06T07:57:46.258Z,99.86
2022-12-06T08:00:17.294Z,99.49
2022-12-06T08:02:45.945Z,99.31
2022-12-06T08:05:14.042Z,96.90
2022-12-06T08:07:41.890Z,96.66
2022-12-06T08:10:10.088Z,95.20
2022-12-06T08:12:38.160Z,94.99
2022-12-06T08:15:12.868Z,91.85
2022-12-06T08:17:42.755Z,92.92
2022-12-06T08:20:12.359Z,90.67
2022-12-06T08:22:40.241Z,88.26
2022-12-06T08:25:09.090Z,87.90
2022-12-06T08:27:37.063Z,86.88
2022-12-06T08:30:06.020Z,86.72
2022-12-06T08:32:33.843Z,85.06
2022-12-06T08:35:03.159Z,84.76
2022-12-06T08:37:31.253Z,84.13
2022-12-06T08:39:59.318Z,80.82
2022-12-06T08:42:27.600Z,80.61
2022-12-06T08:44:55.544Z,78.47
2022-12-06T08:47:23.494Z,77.47
2022-12-06T08:49:51.659Z,76.93
2022-12-06T08:52:20.902Z,76.80
2022-12-06T08:54:48.887Z,73.44
2022-12-06T08:57:17.024Z,72.32
2022-12-06T08:59:45.168Z,70.95
2022-12-06T09:02:14.203Z,70.66
2022-12-06T09:04:42.226Z,70.29
2022-12-06T09:07:12.001Z,71.06
2022-12-06T09:09:41.915Z,70.23
2022-12-06T09:12:09.921Z,70.87
2022-12-06T09:14:37.937Z,71.47
2022-12-06T09:17:07.048Z,71.32
2022-12-06T09:19:35.117Z,74.46
2022-12-06T09:22:03.150Z,78.36
2022-12-06T09:24:31.398Z,81.19
2022-12-06T09:27:00.887Z,89.03
2022-12-06T09:29:28.816Z,97.30
2022-12-06T09:31:56.708Z,100.00
2022-12-06T09:34:24.741Z,100.00
2022-12-06T09:36:56.349Z,100.00
2022-12-06T09:39:28.810Z,100.00
2022-12-06T09:42:20.760Z,100.00
2022-12-06T09:45:07.749Z,100.00
2022-12-06T09:47:51.647Z,100.00
2022-12-06T09:50:29.549Z,100.00
2022-12-06T09:53:13.676Z,100.00
2022-12-06T09:56:00.912Z,100.00
2022-12-06T09:58:43.568Z,100.00
2022-12-06T10:01:21.060Z,100.00
2022-12-06T10:04:00.175Z,100.00
2022-12-06T10:06:35.904Z,100.00
2022-12-06T10:09:33.013Z,100.00
2022-12-06T10:12:16.918Z,100.00
2022-12-06T10:15:04.575Z,100.00
2022-12-06T10:17:42.327Z,100.00
2022-12-06T10:20:19.430Z,100.00
2022-12-06T10:23:02.426Z,100.00
2022-12-06T10:25:35.338Z,100.00
2022-12-06T10:28:12.692Z,100.00
2022-12-06T10:30:48.156Z,100.00
2022-12-06T10:33:22.505Z,100.00
2022-12-06T10:35:56.521Z,100.00
2022-12-06T10:38:31.449Z,100.00
2022-12-06T10:41:10.380Z,100.00
2022-12-06T10:43:49.685Z,100.00
2022-12-06T10:46:45.862Z,100.00
2022-12-06T10:49:20.479Z,100.00
2022-12-06T10:51:55.504Z,100.00
2022-12-06T10:54:30.271Z,100.00
2022-12-06T10:57:03.421Z,100.00
2022-12-06T10:59:37.724Z,100.00
2022-12-06T11:02:22.738Z,100.00
2022-12-06T11:04:52.694Z,100.00
2022-12-06T11:07:25.104Z,100.00
2022-12-06T11:09:55.140Z,100.00
2022-12-06T11:12:31.403Z,100.00
2022-12-06T11:15:05.286Z,100.00
2022-12-06T11:17:39.728Z,100.00
2022-12-06T11:20:20.060Z,100.00
2022-12-06T11:22:56.291Z,100.00
2022-12-06T11:25:30.545Z,100.00
2022-12-06T11:28:06.530Z,100.00
2022-12-06T11:30:34.829Z,100.00
2022-12-06T11:33:06.022Z,100.00
2022-12-06T11:35:34.140Z,100.00
2022-12-06T11:38:05.232Z,100.00
2022-12-06T11:40:37.039Z,100.00
2022-12-06T11:43:08.196Z,100.00
2022-12-06T11:45:39.302Z,100.00
2022-12-06T11:48:16.544Z,100.00
2022-12-06T11:50:45.975Z,100.00
2022-12-06T11:53:20.291Z,100.00
2022-12-06T11:55:52.046Z,100.00
2022-12-06T11:58:28.050Z,100.00
2022-12-06T12:01:02.390Z,100.00
2022-12-06T12:03:33.937Z,100.00
2022-12-06T12:06:09.568Z,100.00
2022-12-06T12:08:38.433Z,100.00
2022-12-06T12:11:06.418Z,100.00
2022-12-06T12:13:47.448Z,100.00
2022-12-06T12:16:20.100Z,100.00
2022-12-06T12:18:57.279Z,100.00
2022-12-06T12:21:36.436Z,100.00
2022-12-06T12:24:06.023Z,100.00
2022-12-06T12:26:40.646Z,100.00
2022-12-06T12:29:19.913Z,100.00
2022-12-06T12:31:53.870Z,100.00
2022-12-06T12:34:25.892Z,100.00
2022-12-06T12:36:56.423Z,100.00
2022-12-06T12:39:33.449Z,100.00
2022-12-06T12:42:02.842Z,100.00
2022-12-06T12:44:38.699Z,100.00
2022-12-06T12:47:18.284Z,100.00
2022-12-06T12:50:01.665Z,100.00
2022-12-06T12:52:31.826Z,100.00
2022-12-06T12:55:03.017Z,100.00
2022-12-06T12:57:31.412Z,100.00
2022-12-06T12:59:59.331Z,100.00
2022-12-06T13:02:30.802Z,100.00
2022-12-06T13:07:54.580Z,100.00
2022-12-06T13:10:28.274Z,100.00
2022-12-06T13:12:59.906Z,100.00
2022-12-06T13:15:35.187Z,100.00
2022-12-06T13:18:11.577Z,100.00
2022-12-06T13:20:41.930Z,100.00
2022-12-06T13:23:14.394Z,100.00
2022-12-06T13:25:46.514Z,100.00
2022-12-06T13:28:20.083Z,100.00
2022-12-06T13:30:51.465Z,100.00
2022-12-06T13:33:23.221Z,100.00
2022-12-06T13:35:56.959Z,100.00
2022-12-06T13:38:30.489Z,100.00
2022-12-06T13:40:58.995Z,100.00
2022-12-06T13:43:57.664Z,100.00
2022-12-06T13:46:31.261Z,100.00
2022-12-06T13:49:01.788Z,100.00
2022-12-06T13:51:48.414Z,100.00
2022-12-06T13:54:31.236Z,100.00
2022-12-06T13:57:00.374Z,100.00
2022-12-06T13:59:46.204Z,100.00
2022-12-06T14:02:50.721Z,100.00
2022-12-06T14:08:33.208Z,100.00
2022-12-06T14:11:17.124Z,100.00
2022-12-06T14:13:47.125Z,100.00
2022-12-06T14:16:22.346Z,100.00
2022-12-06T14:18:51.370Z,100.00
2022-12-06T14:21:25.440Z,100.00
2022-12-06T14:23:54.833Z,100.00
2022-12-06T14:26:25.538Z,100.00
2022-12-06T14:28:56.436Z,100.00
2022-12-06T14:31:28.683Z,100.00
2022-12-06T14:33:57.675Z,100.00
2022-12-06T14:36:30.029Z,100.00
2022-12-06T14:39:02.393Z,100.00
2022-12-06T14:41:54.239Z,100.00
2022-12-06T14:44:28.689Z,100.00
2022-12-06T14:46:57.588Z,100.00
2022-12-06T14:49:45.257Z,100.00
2022-12-06T14:52:23.439Z,100.00
2022-12-06T14:54:54.466Z,100.00
2022-12-06T14:57:27.317Z,100.00
2022-12-06T15:00:26.275Z,100.00
2022-12-06T15:03:26.112Z,100.00
2022-12-06T15:06:14.950Z,100.00
2022-12-06T15:08:44.370Z,100.00
2022-12-06T15:11:50.563Z,100.00
2022-12-06T15:14:22.067Z,100.00
2022-12-06T15:16:59.400Z,100.00
2022-12-06T15:19:27.704Z,100.00
2022-12-06T15:21:55.883Z,100.00
2022-12-06T15:24:25.329Z,100.00
2022-12-06T15:26:55.190Z,100.00
2022-12-06T15:29:23.096Z,100.00
2022-12-06T15:31:54.865Z,100.00
2022-12-06T15:34:26.742Z,100.00
2022-12-06T15:37:15.243Z,100.00
2022-12-06T15:39:44.061Z,100.00
2022-12-06T15:42:18.513Z,100.00
2022-12-06T15:44:49.463Z,100.00
2022-12-06T15:47:19.478Z,100.00
2022-12-06T15:49:47.870Z,100.00
2022-12-06T15:52:18.316Z,100.00
2022-12-06T15:54:46.837Z,100.00
2022-12-06T15:57:16.232Z,100.00
2022-12-06T15:59:44.008Z,100.00
2022-12-06T16:02:15.582Z,100.00
2022-12-06T16:04:43.850Z,100.00
2022-12-06T16:07:13.282Z,100.00
2022-12-06T16:09:41.283Z,100.00
2022-12-06T16:12:10.662Z,100.00
2022-12-06T16:14:40.053Z,100.00
2022-12-06T16:17:08.387Z,100.00
2022-12-06T16:19:53.540Z,100.00
2022-12-06T16:22:41.909Z,100.00
2022-12-06T16:25:09.077Z,100.00
2022-12-06T16:27:37.070Z,100.00
2022-12-06T16:30:07.975Z,100.00
2022-12-06T16:32:35.820Z,100.00
2022-12-06T16:35:03.988Z,100.00
2022-12-06T16:37:32.139Z,100.00
2022-12-06T16:39:59.993Z,100.00
2022-12-06T16:42:27.857Z,100.00
2022-12-06T16:44:55.820Z,100.00
2022-12-06T16:49:51.915Z,100.00
2022-12-06T16:52:19.908Z,100.00
2022-12-06T16:54:47.795Z,100.00
2022-12-06T16:57:16.208Z,100.00
2022-12-06T16:59:44.205Z,100.00
2022-12-06T17:02:28.271Z,100.00
2022-12-06T17:04:57.056Z,100.00
2022-12-06T17:07:24.955Z,100.00
2022-12-06T17:09:52.995Z,100.00
2022-12-06T17:12:21.611Z,100.00
2022-12-06T17:14:49.701Z,100.00
2022-12-06T17:17:20.111Z,100.00
2022-12-06T17:19:50.633Z,100.00
2022-12-06T17:22:19.005Z,100.00
2022-12-06T17:24:46.918Z,100.00
2022-12-06T17:27:15.469Z,100.00
2022-12-06T17:29:44.579Z,100.00
2022-12-06T17:32:13.034Z,100.00
2022-12-06T17:34:41.000Z,100.00
2022-12-06T17:37:10.891Z,100.00
2022-12-06T17:39:39.335Z,100.00
2022-12-06T17:42:25.067Z,100.00
2022-12-06T17:44:53.666Z,100.00
2022-12-06T17:47:21.748Z,100.00
2022-12-06T17:49:49.649Z,100.00
2022-12-06T17:52:19.173Z,100.00
2022-12-06T17:54:47.170Z,100.00
2022-12-06T17:57:18.180Z,100.00
2022-12-06T17:59:47.489Z,100.00
2022-12-06T18:02:18.451Z,100.00
2022-12-06T18:04:47.431Z,100.00
2022-12-06T18:07:16.665Z,100.00
2022-12-06T18:09:46.375Z,100.00
2022-12-06T18:12:16.344Z,100.00
2022-12-06T18:14:44.334Z,100.00
2022-12-06T18:17:12.889Z,100.00
2022-12-06T18:19:41.489Z,100.00
2022-12-06T18:22:09.714Z,100.00
2022-12-06T18:24:37.719Z,100.00
2022-12-06T18:27:07.976Z,100.00
2022-12-06T18:29:36.372Z,100.00
2022-12-06T18:32:05.052Z,100.00
2022-12-06T18:34:33.109Z,100.00
2022-12-06T18:37:01.279Z,100.00
2022-12-06T18:39:29.189Z,100.00
2022-12-06T18:41:57.118Z,100.00
2022-12-06T18:44:26.998Z,100.00
2022-12-06T18:46:55.012Z,100.00
2022-12-06T18:49:22.888Z,100.00
2022-12-06T18:51:50.854Z,100.00
2022-12-06T18:54:18.863Z,100.00
2022-12-06T18:56:46.912Z,100.00
2022-12-06T18:59:14.940Z,100.00
2022-12-06T19:01:44.488Z,100.00
2022-12-06T19:04:14.839Z,100.00
2022-12-06T19:06:44.581Z,100.00
2022-12-06T19:09:15.839Z,100.00
2022-12-06T19:11:45.958Z,100.00
2022-12-06T19:14:14.551Z,100.00
2022-12-06T19:16:45.834Z,100.00
2022-12-06T19:19:17.123Z,100.00
2022-12-06T19:21:46.671Z,100.00
2022-12-06T19:24:17.082Z,100.00
2022-12-06T19:26:46.044Z,100.00
2022-12-06T19:29:14.624Z,100.00
2022-12-06T19:31:44.526Z,100.00
2022-12-06T19:34:16.706Z,100.00
2022-12-06T19:36:45.422Z,100.00
2022-12-06T19:39:13.854Z,100.00
2022-12-06T19:41:55.845Z,100.00
2022-12-06T19:44:24.392Z,100.00
2022-12-06T19:46:54.606Z,100.00
2022-12-06T19:49:24.505Z,100.00
2022-12-06T19:51:53.510Z,100.00
2022-12-06T19:54:23.392Z,100.00
2022-12-06T19:56:53.234Z,100.00
2022-12-06T19:59:22.016Z,100.00
2022-12-06T20:01:51.004Z,100.00
2022-12-06T20:04:23.790Z,100.00
2022-12-06T20:06:52.361Z,100.00
2022-12-06T20:09:24.694Z,100.00
2022-12-06T20:12:05.388Z,100.00
2022-12-06T20:14:39.379Z,100.00
2022-12-06T20:17:09.423Z,100.00
2022-12-06T20:19:39.526Z,100.00
2022-12-06T20:22:07.550Z,100.00
2022-12-06T20:24:35.687Z,100.00
2022-12-06T20:27:03.784Z,100.00
2022-12-06T20:29:32.692Z,100.00
2022-12-06T20:32:01.457Z,100.00
2022-12-06T20:34:34.162Z,100.00
2022-12-06T20:37:06.168Z,100.00
2022-12-06T20:39:35.877Z,100.00
2022-12-06T20:42:05.881Z,100.00
2022-12-06T20:44:34.721Z,100.00
2022-12-06T20:47:02.913Z,100.00
2022-12-06T20:49:31.076Z,100.00
2022-12-06T20:52:02.073Z,100.00
2022-12-06T20:54:31.896Z,100.00
2022-12-06T20:56:59.893Z,100.00
2022-12-06T20:59:29.361Z,100.00
2022-12-06T21:01:57.769Z,100.00
2022-12-06T21:04:26.620Z,100.00
2022-12-06T21:06:54.564Z,100.00
2022-12-06T21:09:22.731Z,100.00
2022-12-06T21:11:52.255Z,100.00
2022-12-06T21:14:20.353Z,100.00
2022-12-06T21:16:48.314Z,100.00
2022-12-06T21:19:18.402Z,100.00
2022-12-06T21:21:48.207Z,100.00
2022-12-06T21:24:17.683Z,100.00
2022-12-06T21:26:45.923Z,100.00
2022-12-06T21:29:17.167Z,100.00
2022-12-06T21:31:45.223Z,100.00
2022-12-06T21:34:13.382Z,100.00
2022-12-06T21:36:41.909Z,100.00
2022-12-06T21:39:12.378Z,100.00
2022-12-06T21:41:40.442Z,100.00
2022-12-06T21:44:08.338Z,100.00
2022-12-06T21:46:37.670Z,100.00
2022-12-06T21:49:05.608Z,100.00
2022-12-06T21:51:33.874Z,100.00
2022-12-06T21:54:02.591Z,100.00
2022-12-06T21:56:32.831Z,100.00
2022-12-06T21:59:01.470Z,100.00
2022-12-06T22:01:31.237Z,100.00
2022-12-06T22:04:03.039Z,100.00
2022-12-06T22:06:31.521Z,100.00
2022-12-06T22:09:01.758Z,100.00
2022-12-06T22:11:30.256Z,100.00
2022-12-06T22:13:58.775Z,100.00
2022-12-06T22:16:27.323Z,100.00
2022-12-06T22:18:55.495Z,100.00
2022-12-06T22:21:27.357Z,100.00
2022-12-06T22:23:57.418Z,100.00
2022-12-06T22:26:28.133Z,100.00
2022-12-06T22:28:56.645Z,100.00
2022-12-06T22:31:26.559Z,100.00
2022-12-06T22:33:54.774Z,100.00
2022-12-06T22:36:24.460Z,100.00
2022-12-06T22:38:53.846Z,100.00
2022-12-06T22:41:22.283Z,100.00
2022-12-06T22:43:52.471Z,100.00
2022-12-06T22:46:21.272Z,100.00
2022-12-06T22:48:49.970Z,100.00
2022-12-06T22:51:19.853Z,100.00
2022-12-06T22:53:53.199Z,100.00
2022-12-06T22:56:21.452Z,100.00
2022-12-06T22:58:49.416Z,100.00
2022-12-06T23:01:20.409Z,100.00
2022-12-06T23:03:49.775Z,100.00
2022-12-06T23:06:19.837Z,100.00
2022-12-06T23:08:49.518Z,100.00
2022-12-06T23:11:19.825Z,100.00
2022-12-06T23:13:48.011Z,100.00
2022-12-06T23:16:17.407Z,100.00
2022-12-06T23:18:45.939Z,100.00
2022-12-06T23:21:15.875Z,100.00
2022-12-06T23:23:46.979Z,100.00
2022-12-06T23:26:18.775Z,100.00
2022-12-06T23:28:47.363Z,100.00
2022-12-06T23:31:17.709Z,100.00
2022-12-06T23:33:46.999Z,100.00
2022-12-06T23:36:18.665Z,100.00
2022-12-06T23:38:46.643Z,100.00
2022-12-06T23:41:18.169Z,100.00
2022-12-06T23:43:46.695Z,100.00
2022-12-06T23:46:21.979Z,100.00
2022-12-06T23:48:50.469Z,100.00
2022-12-06T23:51:19.971Z,100.00
2022-12-06T23:53:51.826Z,100.00
2022-12-06T23:56:22.950Z,100.00
2022-12-06T23:58:51.659Z,100.00
